Terminal Aerodrome Forecast
Issued by NWS Memphis, TN

Home | Current Version | Previous Version | Text Only | Print | Product List | Glossary On
Versions: 1 2 3 4 5 6 7 8 9 10 11 12 13 14 15 16 17 18 19 20 21 22 23 24 25 26 27 28 29 30 31 32 33
000
FTUS44 KMEG 270526
TAFMEM
TAF
KMEM 270526Z 2706/2806 08010KT P6SM VCSH BKN040 BKN070
     FM270800 16010KT P6SM VCTS SCT015 OVC035CB
      TEMPO 2708/2712 3SM TSRA BKN015CB
     FM271200 17010KT P6SM VCTS BKN010CB OVC040
     FM271800 16012G20KT P6SM VCTS OVC050CB=

USA.gov is the U.S. government's official web portal to all federal, state and local government web resources and services.